sensor_id;sensor_type;location;lat;lon;timestamp;temperature;humidity
7032;DHT22;3557;48.880;8.328;2022-09-24T00:01:52;11.20;99.90
7032;DHT22;3557;48.880;8.328;2022-09-24T00:04:19;11.10;99.90
7032;DHT22;3557;48.880;8.328;2022-09-24T00:06:50;11.10;99.90
7032;DHT22;3557;48.880;8.328;2022-09-24T00:09:19;11.10;99.90
7032;DHT22;3557;48.880;8.328;2022-09-24T00:11:49;11.20;99.90
7032;DHT22;3557;48.880;8.328;2022-09-24T00:14:18;11.20;99.90
7032;DHT22;3557;48.880;8.328;2022-09-24T00:19:13;11.20;99.90
7032;DHT22;3557;48.880;8.328;2022-09-24T00:21:40;11.20;99.90
7032;DHT22;3557;48.880;8.328;2022-09-24T00:24:09;11.20;99.90
7032;DHT22;3557;48.880;8.328;2022-09-24T00:27:01;11.10;99.90
7032;DHT22;3557;48.880;8.328;2022-09-24T00:29:28;11.10;99.90
7032;DHT22;3557;48.880;8.328;2022-09-24T00:31:56;11.10;99.90
7032;DHT22;3557;48.880;8.328;2022-09-24T00:34:23;10.90;99.90
7032;DHT22;3557;48.880;8.328;2022-09-24T00:36:50;10.90;99.90
7032;DHT22;3557;48.880;8.328;2022-09-24T00:44:49;10.80;99.90
7032;DHT22;3557;48.880;8.328;2022-09-24T00:47:29;10.80;99.90
7032;DHT22;3557;48.880;8.328;2022-09-24T00:50:05;10.70;99.90
7032;DHT22;3557;48.880;8.328;2022-09-24T00:52:38;10.60;99.90
7032;DHT22;3557;48.880;8.328;2022-09-24T00:55:07;10.50;99.90
7032;DHT22;3557;48.880;8.328;2022-09-24T00:57:36;10.50;99.90
7032;DHT22;3557;48.880;8.328;2022-09-24T01:00:06;10.40;99.90
7032;DHT22;3557;48.880;8.328;2022-09-24T01:02:36;10.40;99.90
7032;DHT22;3557;48.880;8.328;2022-09-24T01:05:05;10.30;99.90
7032;DHT22;3557;48.880;8.328;2022-09-24T01:07:35;10.30;99.90
7032;DHT22;3557;48.880;8.328;2022-09-24T01:10:03;10.30;99.90
7032;DHT22;3557;48.880;8.328;2022-09-24T01:12:36;10.20;99.90
7032;DHT22;3557;48.880;8.328;2022-09-24T01:15:20;10.20;99.90
7032;DHT22;3557;48.880;8.328;2022-09-24T01:17:55;10.20;99.90
7032;DHT22;3557;48.880;8.328;2022-09-24T01:23:40;10.20;99.90
7032;DHT22;3557;48.880;8.328;2022-09-24T01:26:30;10.20;99.90
7032;DHT22;3557;48.880;8.328;2022-09-24T01:29:27;10.20;99.90
7032;DHT22;3557;48.880;8.328;2022-09-24T01:31:59;10.20;99.90
7032;DHT22;3557;48.880;8.328;2022-09-24T01:34:35;10.20;99.90
7032;DHT22;3557;48.880;8.328;2022-09-24T01:37:05;10.20;99.90
7032;DHT22;3557;48.880;8.328;2022-09-24T01:39:35;10.30;99.90
7032;DHT22;3557;48.880;8.328;2022-09-24T01:42:04;10.30;99.90
7032;DHT22;3557;48.880;8.328;2022-09-24T01:44:34;10.20;99.90
7032;DHT22;3557;48.880;8.328;2022-09-24T01:47:04;10.30;99.90
7032;DHT22;3557;48.880;8.328;2022-09-24T01:52:02;10.30;99.90
7032;DHT22;3557;48.880;8.328;2022-09-24T01:54:35;10.30;99.90
7032;DHT22;3557;48.880;8.328;2022-09-24T01:57:11;10.30;99.90
7032;DHT22;3557;48.880;8.328;2022-09-24T01:59:43;10.30;99.90
7032;DHT22;3557;48.880;8.328;2022-09-24T02:02:17;10.30;99.90
7032;DHT22;3557;48.880;8.328;2022-09-24T02:04:56;10.40;99.90
7032;DHT22;3557;48.880;8.328;2022-09-24T02:07:29;10.30;99.90
7032;DHT22;3557;48.880;8.328;2022-09-24T02:09:59;10.30;99.90
7032;DHT22;3557;48.880;8.328;2022-09-24T02:12:30;10.40;99.90
7032;DHT22;3557;48.880;8.328;2022-09-24T02:15:03;10.30;99.90
7032;DHT22;3557;48.880;8.328;2022-09-24T02:17:36;10.30;99.90
7032;DHT22;3557;48.880;8.328;2022-09-24T02:20:08;10.30;99.90
7032;DHT22;3557;48.880;8.328;2022-09-24T02:22:37;10.30;99.90
7032;DHT22;3557;48.880;8.328;2022-09-24T02:25:09;10.30;99.90
7032;DHT22;3557;48.880;8.328;2022-09-24T02:27:39;10.30;99.90
7032;DHT22;3557;48.880;8.328;2022-09-24T02:30:08;10.30;99.90
7032;DHT22;3557;48.880;8.328;2022-09-24T02:32:38;10.30;99.90
7032;DHT22;3557;48.880;8.328;2022-09-24T02:35:09;10.40;99.90
7032;DHT22;3557;48.880;8.328;2022-09-24T02:37:39;10.40;99.90
7032;DHT22;3557;48.880;8.328;2022-09-24T02:40:09;10.50;99.90
7032;DHT22;3557;48.880;8.328;2022-09-24T02:42:38;10.50;99.90
7032;DHT22;3557;48.880;8.328;2022-09-24T02:45:10;10.50;99.90
7032;DHT22;3557;48.880;8.328;2022-09-24T02:50:05;10.50;99.90
7032;DHT22;3557;48.880;8.328;2022-09-24T02:52:33;10.50;99.90
7032;DHT22;3557;48.880;8.328;2022-09-24T02:59:54;10.70;99.90
7032;DHT22;3557;48.880;8.328;2022-09-24T03:02:23;10.70;99.90
7032;DHT22;3557;48.880;8.328;2022-09-24T03:12:13;10.70;99.90
7032;DHT22;3557;48.880;8.328;2022-09-24T03:14:40;10.70;99.90
7032;DHT22;3557;48.880;8.328;2022-09-24T03:19:36;10.70;99.90
7032;DHT22;3557;48.880;8.328;2022-09-24T03:22:03;10.80;99.90
7032;DHT22;3557;48.880;8.328;2022-09-24T03:32:05;10.60;99.90
7032;DHT22;3557;48.880;8.328;2022-09-24T03:37:01;10.60;99.90
7032;DHT22;3557;48.880;8.328;2022-09-24T03:39:28;10.50;99.90
7032;DHT22;3557;48.880;8.328;2022-09-24T03:41:55;10.60;99.90
7032;DHT22;3557;48.880;8.328;2022-09-24T03:44:22;10.60;99.90
7032;DHT22;3557;48.880;8.328;2022-09-24T03:46:48;10.70;99.90
7032;DHT22;3557;48.880;8.328;2022-09-24T03:51:43;10.70;99.90
7032;DHT22;3557;48.880;8.328;2022-09-24T03:54:11;10.70;99.90
7032;DHT22;3557;48.880;8.328;2022-09-24T04:01:33;10.70;99.90
7032;DHT22;3557;48.880;8.328;2022-09-24T04:04:02;10.90;99.90
7032;DHT22;3557;48.880;8.328;2022-09-24T04:06:29;10.90;99.90
7032;DHT22;3557;48.880;8.328;2022-09-24T04:08:57;10.80;99.90
7032;DHT22;3557;48.880;8.328;2022-09-24T04:11:26;10.80;99.90
7032;DHT22;3557;48.880;8.328;2022-09-24T04:16:20;10.80;99.90
7032;DHT22;3557;48.880;8.328;2022-09-24T04:26:10;10.70;99.90
7032;DHT22;3557;48.880;8.328;2022-09-24T04:28:38;10.60;99.90
7032;DHT22;3557;48.880;8.328;2022-09-24T04:31:05;10.60;99.90
7032;DHT22;3557;48.880;8.328;2022-09-24T04:33:32;10.50;99.90
7032;DHT22;3557;48.880;8.328;2022-09-24T04:35:59;10.50;99.90
7032;DHT22;3557;48.880;8.328;2022-09-24T04:40:54;10.30;99.90
7032;DHT22;3557;48.880;8.328;2022-09-24T04:43:30;10.30;99.90
7032;DHT22;3557;48.880;8.328;2022-09-24T04:45:59;10.40;99.90
7032;DHT22;3557;48.880;8.328;2022-09-24T04:50:54;10.40;99.90
7032;DHT22;3557;48.880;8.328;2022-09-24T04:53:21;10.40;99.90
7032;DHT22;3557;48.880;8.328;2022-09-24T04:55:49;10.40;99.90
7032;DHT22;3557;48.880;8.328;2022-09-24T05:00:43;10.40;99.90
7032;DHT22;3557;48.880;8.328;2022-09-24T05:03:12;10.40;99.90
7032;DHT22;3557;48.880;8.328;2022-09-24T05:05:39;10.40;99.90
7032;DHT22;3557;48.880;8.328;2022-09-24T05:10:34;10.40;99.90
7032;DHT22;3557;48.880;8.328;2022-09-24T05:13:01;10.30;99.90
7032;DHT22;3557;48.880;8.328;2022-09-24T05:15:28;10.30;99.90
7032;DHT22;3557;48.880;8.328;2022-09-24T05:20:24;10.40;99.90
7032;DHT22;3557;48.880;8.328;2022-09-24T05:22:51;10.40;99.90
7032;DHT22;3557;48.880;8.328;2022-09-24T05:25:19;10.40;99.90
7032;DHT22;3557;48.880;8.328;2022-09-24T05:27:48;10.40;99.90
7032;DHT22;3557;48.880;8.328;2022-09-24T05:30:16;10.40;99.90
7032;DHT22;3557;48.880;8.328;2022-09-24T05:32:45;10.40;99.90
7032;DHT22;3557;48.880;8.328;2022-09-24T05:35:16;10.50;99.90
7032;DHT22;3557;48.880;8.328;2022-09-24T05:37:45;10.50;99.90
7032;DHT22;3557;48.880;8.328;2022-09-24T05:40:14;10.60;99.90
7032;DHT22;3557;48.880;8.328;2022-09-24T05:45:34;10.60;99.90
7032;DHT22;3557;48.880;8.328;2022-09-24T05:48:01;10.60;99.90
7032;DHT22;3557;48.880;8.328;2022-09-24T05:50:28;10.70;99.90
7032;DHT22;3557;48.880;8.328;2022-09-24T05:53:00;10.70;99.90
7032;DHT22;3557;48.880;8.328;2022-09-24T05:55:27;10.70;99.90
7032;DHT22;3557;48.880;8.328;2022-09-24T05:57:54;10.80;99.90
7032;DHT22;3557;48.880;8.328;2022-09-24T06:00:21;10.80;99.90
7032;DHT22;3557;48.880;8.328;2022-09-24T06:05:15;10.90;99.90
7032;DHT22;3557;48.880;8.328;2022-09-24T06:10:11;11.10;99.90
7032;DHT22;3557;48.880;8.328;2022-09-24T06:12:38;11.10;99.90
7032;DHT22;3557;48.880;8.328;2022-09-24T06:15:05;11.10;99.90
7032;DHT22;3557;48.880;8.328;2022-09-24T06:17:33;11.10;99.90
7032;DHT22;3557;48.880;8.328;2022-09-24T06:20:00;11.30;99.90
7032;DHT22;3557;48.880;8.328;2022-09-24T06:27:23;11.50;99.90
7032;DHT22;3557;48.880;8.328;2022-09-24T06:29:50;11.60;99.90
7032;DHT22;3557;48.880;8.328;2022-09-24T06:32:17;11.70;99.90
7032;DHT22;3557;48.880;8.328;2022-09-24T06:44:35;12.20;99.90
7032;DHT22;3557;48.880;8.328;2022-09-24T06:47:02;12.30;99.90
7032;DHT22;3557;48.880;8.328;2022-09-24T06:51:56;12.60;99.90
7032;DHT22;3557;48.880;8.328;2022-09-24T06:54:23;12.70;99.90
7032;DHT22;3557;48.880;8.328;2022-09-24T06:56:50;12.70;99.90
7032;DHT22;3557;48.880;8.328;2022-09-24T06:59:18;12.80;99.90
7032;DHT22;3557;48.880;8.328;2022-09-24T07:01:46;12.90;99.90
7032;DHT22;3557;48.880;8.328;2022-09-24T07:04:13;12.90;99.90
7032;DHT22;3557;48.880;8.328;2022-09-24T07:09:24;13.00;99.90
7032;DHT22;3557;48.880;8.328;2022-09-24T07:14:19;13.00;99.90
7032;DHT22;3557;48.880;8.328;2022-09-24T07:16:47;13.30;99.90
7032;DHT22;3557;48.880;8.328;2022-09-24T07:19:14;13.30;99.90
7032;DHT22;3557;48.880;8.328;2022-09-24T07:31:30;13.40;99.90
7032;DHT22;3557;48.880;8.328;2022-09-24T07:33:59;13.40;99.90
7032;DHT22;3557;48.880;8.328;2022-09-24T07:41:23;13.30;99.90
7032;DHT22;3557;48.880;8.328;2022-09-24T07:46:17;13.40;99.90
7032;DHT22;3557;48.880;8.328;2022-09-24T07:51:15;13.40;99.90
7032;DHT22;3557;48.880;8.328;2022-09-24T07:53:42;13.40;99.90
7032;DHT22;3557;48.880;8.328;2022-09-24T07:56:08;13.40;99.90
7032;DHT22;3557;48.880;8.328;2022-09-24T08:01:03;13.50;99.90
7032;DHT22;3557;48.880;8.328;2022-09-24T08:03:30;13.60;99.90
7032;DHT22;3557;48.880;8.328;2022-09-24T08:08:27;13.80;99.90
7032;DHT22;3557;48.880;8.328;2022-09-24T08:10:54;13.80;99.90
7032;DHT22;3557;48.880;8.328;2022-09-24T08:13:21;13.90;99.90
7032;DHT22;3557;48.880;8.328;2022-09-24T08:15:55;13.90;99.90
7032;DHT22;3557;48.880;8.328;2022-09-24T08:18:24;14.10;99.90
7032;DHT22;3557;48.880;8.328;2022-09-24T08:20:51;14.20;99.90
7032;DHT22;3557;48.880;8.328;2022-09-24T08:25:47;14.30;99.90
7032;DHT22;3557;48.880;8.328;2022-09-24T08:30:44;14.40;99.90
7032;DHT22;3557;48.880;8.328;2022-09-24T08:33:11;14.30;99.90
7032;DHT22;3557;48.880;8.328;2022-09-24T08:38:05;14.40;99.90
7032;DHT22;3557;48.880;8.328;2022-09-24T08:40:36;14.40;99.90
7032;DHT22;3557;48.880;8.328;2022-09-24T08:43:16;14.50;99.90
7032;DHT22;3557;48.880;8.328;2022-09-24T08:45:50;14.60;99.90
7032;DHT22;3557;48.880;8.328;2022-09-24T08:48:40;14.70;99.90
7032;DHT22;3557;48.880;8.328;2022-09-24T08:51:12;14.90;99.90
7032;DHT22;3557;48.880;8.328;2022-09-24T08:53:45;15.20;99.90
7032;DHT22;3557;48.880;8.328;2022-09-24T08:56:19;15.20;99.90
7032;DHT22;3557;48.880;8.328;2022-09-24T08:58:54;13.80;99.90
7032;DHT22;3557;48.880;8.328;2022-09-24T09:01:32;15.10;99.90
7032;DHT22;3557;48.880;8.328;2022-09-24T09:04:05;15.30;99.90
7032;DHT22;3557;48.880;8.328;2022-09-24T09:06:51;15.00;99.90
7032;DHT22;3557;48.880;8.328;2022-09-24T09:09:40;15.10;99.90
7032;DHT22;3557;48.880;8.328;2022-09-24T09:12:14;15.30;99.90
7032;DHT22;3557;48.880;8.328;2022-09-24T09:14:50;15.40;99.90
7032;DHT22;3557;48.880;8.328;2022-09-24T09:17:28;15.60;99.90
7032;DHT22;3557;48.880;8.328;2022-09-24T09:20:03;15.80;99.90
7032;DHT22;3557;48.880;8.328;2022-09-24T09:22:36;15.90;99.90
7032;DHT22;3557;48.880;8.328;2022-09-24T09:25:16;15.90;99.90
7032;DHT22;3557;48.880;8.328;2022-09-24T09:27:48;15.90;99.90
7032;DHT22;3557;48.880;8.328;2022-09-24T09:30:19;16.10;99.90
7032;DHT22;3557;48.880;8.328;2022-09-24T09:33:09;16.00;99.90
7032;DHT22;3557;48.880;8.328;2022-09-24T09:35:46;15.90;99.90
7032;DHT22;3557;48.880;8.328;2022-09-24T09:38:23;16.00;99.90
7032;DHT22;3557;48.880;8.328;2022-09-24T09:41:01;15.90;99.90
7032;DHT22;3557;48.880;8.328;2022-09-24T09:43:31;15.80;99.90
7032;DHT22;3557;48.880;8.328;2022-09-24T09:46:05;15.90;99.90
7032;DHT22;3557;48.880;8.328;2022-09-24T09:48:43;15.90;99.90
7032;DHT22;3557;48.880;8.328;2022-09-24T09:51:16;15.90;99.90
7032;DHT22;3557;48.880;8.328;2022-09-24T09:53:55;15.70;99.90
7032;DHT22;3557;48.880;8.328;2022-09-24T09:56:25;15.70;99.90
7032;DHT22;3557;48.880;8.328;2022-09-24T09:59:04;15.70;99.90
7032;DHT22;3557;48.880;8.328;2022-09-24T10:01:37;15.70;99.90
7032;DHT22;3557;48.880;8.328;2022-09-24T10:04:25;15.70;99.90
7032;DHT22;3557;48.880;8.328;2022-09-24T10:07:03;15.70;99.90
7032;DHT22;3557;48.880;8.328;2022-09-24T10:12:06;15.80;99.90
7032;DHT22;3557;48.880;8.328;2022-09-24T10:14:34;15.80;99.90
7032;DHT22;3557;48.880;8.328;2022-09-24T10:17:02;15.80;99.90
7032;DHT22;3557;48.880;8.328;2022-09-24T10:19:34;15.90;99.90
7032;DHT22;3557;48.880;8.328;2022-09-24T10:22:10;15.80;99.90
7032;DHT22;3557;48.880;8.328;2022-09-24T10:24:42;15.50;99.90
7032;DHT22;3557;48.880;8.328;2022-09-24T10:27:11;15.60;99.90
7032;DHT22;3557;48.880;8.328;2022-09-24T10:29:38;15.70;99.90
7032;DHT22;3557;48.880;8.328;2022-09-24T10:32:26;16.00;99.90
7032;DHT22;3557;48.880;8.328;2022-09-24T10:34:55;16.10;99.90
7032;DHT22;3557;48.880;8.328;2022-09-24T10:39:57;16.60;99.90
7032;DHT22;3557;48.880;8.328;2022-09-24T10:42:26;16.90;99.90
7032;DHT22;3557;48.880;8.328;2022-09-24T10:44:56;17.20;99.90
7032;DHT22;3557;48.880;8.328;2022-09-24T10:47:32;20.00;99.90
7032;DHT22;3557;48.880;8.328;2022-09-24T10:50:18;17.30;99.90
7032;DHT22;3557;48.880;8.328;2022-09-24T10:52:52;17.40;99.90
7032;DHT22;3557;48.880;8.328;2022-09-24T10:55:49;17.60;99.90
7032;DHT22;3557;48.880;8.328;2022-09-24T10:58:40;18.10;99.90
7032;DHT22;3557;48.880;8.328;2022-09-24T11:01:17;18.30;99.90
7032;DHT22;3557;48.880;8.328;2022-09-24T11:04:05;18.40;99.90
7032;DHT22;3557;48.880;8.328;2022-09-24T11:06:58;18.40;99.90
7032;DHT22;3557;48.880;8.328;2022-09-24T11:09:45;18.70;99.90
7032;DHT22;3557;48.880;8.328;2022-09-24T11:12:21;18.90;99.90
7032;DHT22;3557;48.880;8.328;2022-09-24T11:15:05;19.40;99.90
7032;DHT22;3557;48.880;8.328;2022-09-24T11:17:47;20.00;99.90
7032;DHT22;3557;48.880;8.328;2022-09-24T11:20:32;20.00;99.90
7032;DHT22;3557;48.880;8.328;2022-09-24T11:23:29;20.10;99.90
7032;DHT22;3557;48.880;8.328;2022-09-24T11:26:08;19.50;99.90
7032;DHT22;3557;48.880;8.328;2022-09-24T11:31:54;18.50;99.90
7032;DHT22;3557;48.880;8.328;2022-09-24T11:34:56;18.60;99.90
7032;DHT22;3557;48.880;8.328;2022-09-24T11:37:41;18.30;99.90
7032;DHT22;3557;48.880;8.328;2022-09-24T11:40:28;18.30;99.90
7032;DHT22;3557;48.880;8.328;2022-09-24T11:43:26;18.30;99.90
7032;DHT22;3557;48.880;8.328;2022-09-24T11:46:24;18.30;99.90
7032;DHT22;3557;48.880;8.328;2022-09-24T11:52:13;18.60;99.90
7032;DHT22;3557;48.880;8.328;2022-09-24T11:54:50;18.70;99.90
7032;DHT22;3557;48.880;8.328;2022-09-24T11:57:27;19.10;99.90
7032;DHT22;3557;48.880;8.328;2022-09-24T11:59:58;19.50;99.90
7032;DHT22;3557;48.880;8.328;2022-09-24T12:02:33;19.40;99.90
7032;DHT22;3557;48.880;8.328;2022-09-24T12:05:05;19.20;99.90
7032;DHT22;3557;48.880;8.328;2022-09-24T12:07:37;19.20;99.90
7032;DHT22;3557;48.880;8.328;2022-09-24T12:10:23;18.90;99.90
7032;DHT22;3557;48.880;8.328;2022-09-24T12:13:00;18.80;99.90
7032;DHT22;3557;48.880;8.328;2022-09-24T12:15:40;18.70;99.90
7032;DHT22;3557;48.880;8.328;2022-09-24T12:18:16;18.70;99.90
7032;DHT22;3557;48.880;8.328;2022-09-24T12:20:49;18.80;99.90
7032;DHT22;3557;48.880;8.328;2022-09-24T12:23:20;18.80;99.90
7032;DHT22;3557;48.880;8.328;2022-09-24T12:25:54;18.90;99.90
7032;DHT22;3557;48.880;8.328;2022-09-24T12:28:26;19.10;99.90
7032;DHT22;3557;48.880;8.328;2022-09-24T12:31:21;19.40;99.90
7032;DHT22;3557;48.880;8.328;2022-09-24T12:34:15;19.50;99.90
7032;DHT22;3557;48.880;8.328;2022-09-24T12:36:54;19.60;99.90
7032;DHT22;3557;48.880;8.328;2022-09-24T12:39:28;19.40;99.90
7032;DHT22;3557;48.880;8.328;2022-09-24T12:42:01;19.30;99.90
7032;DHT22;3557;48.880;8.328;2022-09-24T12:44:35;19.30;99.90
7032;DHT22;3557;48.880;8.328;2022-09-24T12:47:14;19.50;99.90
7032;DHT22;3557;48.880;8.328;2022-09-24T12:49:48;19.60;99.90
7032;DHT22;3557;48.880;8.328;2022-09-24T12:52:23;19.50;99.90
7032;DHT22;3557;48.880;8.328;2022-09-24T12:54:56;19.60;99.90
7032;DHT22;3557;48.880;8.328;2022-09-24T12:57:31;19.70;99.90
7032;DHT22;3557;48.880;8.328;2022-09-24T13:00:03;19.60;99.90
7032;DHT22;3557;48.880;8.328;2022-09-24T13:02:43;19.80;99.90
7032;DHT22;3557;48.880;8.328;2022-09-24T13:05:16;20.10;99.90
7032;DHT22;3557;48.880;8.328;2022-09-24T13:07:59;20.30;99.90
7032;DHT22;3557;48.880;8.328;2022-09-24T13:10:28;20.30;99.90
7032;DHT22;3557;48.880;8.328;2022-09-24T13:12:59;20.40;99.90
7032;DHT22;3557;48.880;8.328;2022-09-24T13:15:32;20.40;99.90
7032;DHT22;3557;48.880;8.328;2022-09-24T13:18:12;20.50;99.90
7032;DHT22;3557;48.880;8.328;2022-09-24T13:21:00;20.40;99.90
7032;DHT22;3557;48.880;8.328;2022-09-24T13:26:25;21.00;99.90
7032;DHT22;3557;48.880;8.328;2022-09-24T13:28:57;21.10;99.90
7032;DHT22;3557;48.880;8.328;2022-09-24T13:31:32;20.90;99.90
7032;DHT22;3557;48.880;8.328;2022-09-24T13:34:13;20.80;99.90
7032;DHT22;3557;48.880;8.328;2022-09-24T13:36:46;20.70;99.90
7032;DHT22;3557;48.880;8.328;2022-09-24T13:39:19;20.80;99.90
7032;DHT22;3557;48.880;8.328;2022-09-24T13:41:52;21.10;99.90
7032;DHT22;3557;48.880;8.328;2022-09-24T13:44:29;21.30;99.90
7032;DHT22;3557;48.880;8.328;2022-09-24T13:47:03;20.80;99.90
7032;DHT22;3557;48.880;8.328;2022-09-24T13:49:32;20.50;99.90
7032;DHT22;3557;48.880;8.328;2022-09-24T13:52:10;20.80;99.90
7032;DHT22;3557;48.880;8.328;2022-09-24T13:54:47;21.10;99.90
7032;DHT22;3557;48.880;8.328;2022-09-24T13:57:22;21.70;99.90
7032;DHT22;3557;48.880;8.328;2022-09-24T14:00:15;21.80;99.90
7032;DHT22;3557;48.880;8.328;2022-09-24T14:02:55;21.90;99.90
7032;DHT22;3557;48.880;8.328;2022-09-24T14:05:25;21.70;99.90
7032;DHT22;3557;48.880;8.328;2022-09-24T14:08:03;21.10;99.90
7032;DHT22;3557;48.880;8.328;2022-09-24T14:10:32;20.80;99.90
7032;DHT22;3557;48.880;8.328;2022-09-24T14:13:04;20.60;99.90
7032;DHT22;3557;48.880;8.328;2022-09-24T14:15:49;20.90;99.90
7032;DHT22;3557;48.880;8.328;2022-09-24T14:18:17;21.00;99.90
7032;DHT22;3557;48.880;8.328;2022-09-24T14:20:44;21.00;99.90
7032;DHT22;3557;48.880;8.328;2022-09-24T14:23:18;21.00;99.90
7032;DHT22;3557;48.880;8.328;2022-09-24T14:25:48;21.40;99.90
7032;DHT22;3557;48.880;8.328;2022-09-24T14:28:18;22.00;99.90
7032;DHT22;3557;48.880;8.328;2022-09-24T14:30:50;22.40;99.90
7032;DHT22;3557;48.880;8.328;2022-09-24T14:33:21;22.70;99.90
7032;DHT22;3557;48.880;8.328;2022-09-24T14:35:51;21.90;99.90
7032;DHT22;3557;48.880;8.328;2022-09-24T14:38:22;21.10;99.90
7032;DHT22;3557;48.880;8.328;2022-09-24T14:40:53;20.70;99.90
7032;DHT22;3557;48.880;8.328;2022-09-24T14:43:23;20.50;99.90
7032;DHT22;3557;48.880;8.328;2022-09-24T14:46:01;20.30;99.90
7032;DHT22;3557;48.880;8.328;2022-09-24T14:48:32;19.90;99.90
7032;DHT22;3557;48.880;8.328;2022-09-24T14:51:00;19.90;99.90
7032;DHT22;3557;48.880;8.328;2022-09-24T14:53:29;19.70;99.90
7032;DHT22;3557;48.880;8.328;2022-09-24T14:58:32;19.60;99.90
7032;DHT22;3557;48.880;8.328;2022-09-24T15:01:04;19.50;99.90
7032;DHT22;3557;48.880;8.328;2022-09-24T15:03:38;19.50;99.90
7032;DHT22;3557;48.880;8.328;2022-09-24T15:06:16;19.50;99.90
7032;DHT22;3557;48.880;8.328;2022-09-24T15:08:51;19.50;99.90
7032;DHT22;3557;48.880;8.328;2022-09-24T15:11:19;19.30;99.90
7032;DHT22;3557;48.880;8.328;2022-09-24T15:13:57;19.10;99.90
7032;DHT22;3557;48.880;8.328;2022-09-24T15:16:31;19.00;99.90
7032;DHT22;3557;48.880;8.328;2022-09-24T15:19:15;18.90;99.90
7032;DHT22;3557;48.880;8.328;2022-09-24T15:21:45;18.80;99.90
7032;DHT22;3557;48.880;8.328;2022-09-24T15:26:42;18.80;99.90
7032;DHT22;3557;48.880;8.328;2022-09-24T15:29:17;18.70;99.90
7032;DHT22;3557;48.880;8.328;2022-09-24T15:31:50;18.70;99.90
7032;DHT22;3557;48.880;8.328;2022-09-24T15:34:17;18.70;99.90
7032;DHT22;3557;48.880;8.328;2022-09-24T15:36:45;18.70;99.90
7032;DHT22;3557;48.880;8.328;2022-09-24T15:39:12;18.70;99.90
7032;DHT22;3557;48.880;8.328;2022-09-24T15:44:16;18.80;99.90
7032;DHT22;3557;48.880;8.328;2022-09-24T15:46:44;18.80;99.90
7032;DHT22;3557;48.880;8.328;2022-09-24T15:49:13;18.80;99.90
7032;DHT22;3557;48.880;8.328;2022-09-24T15:51:40;18.80;99.90
7032;DHT22;3557;48.880;8.328;2022-09-24T15:54:08;18.70;99.90
7032;DHT22;3557;48.880;8.328;2022-09-24T15:56:35;18.50;99.90
7032;DHT22;3557;48.880;8.328;2022-09-24T15:59:07;18.40;99.90
7032;DHT22;3557;48.880;8.328;2022-09-24T16:01:35;18.20;99.90
7032;DHT22;3557;48.880;8.328;2022-09-24T16:06:30;18.10;99.90
7032;DHT22;3557;48.880;8.328;2022-09-24T16:16:19;17.90;99.90
7032;DHT22;3557;48.880;8.328;2022-09-24T16:18:46;17.80;99.90
7032;DHT22;3557;48.880;8.328;2022-09-24T16:23:42;17.80;99.90
7032;DHT22;3557;48.880;8.328;2022-09-24T16:31:04;17.60;99.90
7032;DHT22;3557;48.880;8.328;2022-09-24T16:33:36;17.60;99.90
7032;DHT22;3557;48.880;8.328;2022-09-24T16:36:04;17.50;99.90
7032;DHT22;3557;48.880;8.328;2022-09-24T16:38:33;17.50;99.90
7032;DHT22;3557;48.880;8.328;2022-09-24T16:41:02;17.40;99.90
7032;DHT22;3557;48.880;8.328;2022-09-24T16:43:29;17.20;99.90
7032;DHT22;3557;48.880;8.328;2022-09-24T16:45:59;17.10;99.90
7032;DHT22;3557;48.880;8.328;2022-09-24T16:48:28;17.10;99.90
7032;DHT22;3557;48.880;8.328;2022-09-24T16:51:01;16.80;99.90
7032;DHT22;3557;48.880;8.328;2022-09-24T16:53:29;16.60;99.90
7032;DHT22;3557;48.880;8.328;2022-09-24T16:56:03;16.40;99.90
7032;DHT22;3557;48.880;8.328;2022-09-24T16:58:31;16.40;99.90
7032;DHT22;3557;48.880;8.328;2022-09-24T17:00:58;16.30;99.90
7032;DHT22;3557;48.880;8.328;2022-09-24T17:03:25;16.20;99.90
7032;DHT22;3557;48.880;8.328;2022-09-24T17:08:19;16.10;99.90
7032;DHT22;3557;48.880;8.328;2022-09-24T17:10:49;16.10;99.90
7032;DHT22;3557;48.880;8.328;2022-09-24T17:13:17;16.00;99.90
7032;DHT22;3557;48.880;8.328;2022-09-24T17:15:44;15.90;99.90
7032;DHT22;3557;48.880;8.328;2022-09-24T17:25:32;15.40;99.90
7032;DHT22;3557;48.880;8.328;2022-09-24T17:32:57;15.30;99.90
7032;DHT22;3557;48.880;8.328;2022-09-24T17:37:51;15.10;99.90
7032;DHT22;3557;48.880;8.328;2022-09-24T17:42:45;15.00;99.90
7032;DHT22;3557;48.880;8.328;2022-09-24T17:47:41;14.80;99.90
7032;DHT22;3557;48.880;8.328;2022-09-24T17:50:24;14.70;99.90
7032;DHT22;3557;48.880;8.328;2022-09-24T17:52:53;14.60;99.90
7032;DHT22;3557;48.880;8.328;2022-09-24T17:55:19;14.60;99.90
7032;DHT22;3557;48.880;8.328;2022-09-24T17:57:46;14.50;99.90
7032;DHT22;3557;48.880;8.328;2022-09-24T18:02:42;14.50;99.90
7032;DHT22;3557;48.880;8.328;2022-09-24T18:05:09;14.40;99.90
7032;DHT22;3557;48.880;8.328;2022-09-24T18:10:04;14.40;99.90
7032;DHT22;3557;48.880;8.328;2022-09-24T18:17:26;14.40;99.90
7032;DHT22;3557;48.880;8.328;2022-09-24T18:19:54;14.30;99.90
7032;DHT22;3557;48.880;8.328;2022-09-24T18:24:48;14.20;99.90
7032;DHT22;3557;48.880;8.328;2022-09-24T18:27:15;14.20;99.90
7032;DHT22;3557;48.880;8.328;2022-09-24T18:29:42;14.20;99.90
7032;DHT22;3557;48.880;8.328;2022-09-24T18:34:40;14.20;99.90
7032;DHT22;3557;48.880;8.328;2022-09-24T18:37:08;14.10;99.90
7032;DHT22;3557;48.880;8.328;2022-09-24T18:42:03;14.10;99.90
7032;DHT22;3557;48.880;8.328;2022-09-24T18:44:29;14.10;99.90
7032;DHT22;3557;48.880;8.328;2022-09-24T18:49:25;14.10;99.90
7032;DHT22;3557;48.880;8.328;2022-09-24T18:54:20;14.00;99.90
7032;DHT22;3557;48.880;8.328;2022-09-24T18:56:49;13.90;99.90
7032;DHT22;3557;48.880;8.328;2022-09-24T18:59:18;13.90;99.90
7032;DHT22;3557;48.880;8.328;2022-09-24T19:01:46;13.90;99.90
7032;DHT22;3557;48.880;8.328;2022-09-24T19:04:16;13.80;99.90
7032;DHT22;3557;48.880;8.328;2022-09-24T19:06:44;13.80;99.90
7032;DHT22;3557;48.880;8.328;2022-09-24T19:09:14;13.80;99.90
7032;DHT22;3557;48.880;8.328;2022-09-24T19:11:43;13.80;99.90
7032;DHT22;3557;48.880;8.328;2022-09-24T19:19:10;13.70;99.90
7032;DHT22;3557;48.880;8.328;2022-09-24T19:24:06;13.70;99.90
7032;DHT22;3557;48.880;8.328;2022-09-24T19:26:35;13.70;99.90
7032;DHT22;3557;48.880;8.328;2022-09-24T19:29:03;13.70;99.90
7032;DHT22;3557;48.880;8.328;2022-09-24T19:31:32;13.70;99.90
7032;DHT22;3557;48.880;8.328;2022-09-24T19:34:01;13.60;99.90
7032;DHT22;3557;48.880;8.328;2022-09-24T19:36:29;13.70;99.90
7032;DHT22;3557;48.880;8.328;2022-09-24T19:41:26;13.70;99.90
7032;DHT22;3557;48.880;8.328;2022-09-24T19:43:55;13.80;99.90
7032;DHT22;3557;48.880;8.328;2022-09-24T19:46:26;13.80;99.90
7032;DHT22;3557;48.880;8.328;2022-09-24T19:48:56;13.80;99.90
7032;DHT22;3557;48.880;8.328;2022-09-24T19:51:26;13.80;99.90
7032;DHT22;3557;48.880;8.328;2022-09-24T19:53:56;13.80;99.90
7032;DHT22;3557;48.880;8.328;2022-09-24T19:56:25;13.80;99.90
7032;DHT22;3557;48.880;8.328;2022-09-24T19:58:53;13.90;99.90
7032;DHT22;3557;48.880;8.328;2022-09-24T20:01:25;13.90;99.90
7032;DHT22;3557;48.880;8.328;2022-09-24T20:06:23;14.00;99.90
7032;DHT22;3557;48.880;8.328;2022-09-24T20:08:53;13.90;99.90
7032;DHT22;3557;48.880;8.328;2022-09-24T20:11:21;13.90;99.90
7032;DHT22;3557;48.880;8.328;2022-09-24T20:16:20;13.80;99.90
7032;DHT22;3557;48.880;8.328;2022-09-24T20:18:51;13.80;99.90
7032;DHT22;3557;48.880;8.328;2022-09-24T20:21:22;13.80;99.90
7032;DHT22;3557;48.880;8.328;2022-09-24T20:29:07;13.80;99.90